sensor_id;sensor_type;location;lat;lon;timestamp;pressure;altitude;pressure_sealevel;temperature;humidity
49044;BME280;34860;48.066;14.124;2023-05-09T00:02:50;97065.91;;;11.66;53.86
49044;BME280;34860;48.066;14.124;2023-05-09T00:05:42;97051.75;;;11.60;53.98
49044;BME280;34860;48.066;14.124;2023-05-09T00:08:35;97052.63;;;11.57;53.82
49044;BME280;34860;48.066;14.124;2023-05-09T00:11:26;97050.69;;;11.54;53.87
49044;BME280;34860;48.066;14.124;2023-05-09T00:14:16;97048.78;;;11.51;53.95
49044;BME280;34860;48.066;14.124;2023-05-09T00:17:06;97043.31;;;11.48;53.97
49044;BME280;34860;48.066;14.124;2023-05-09T00:19:56;97046.53;;;11.46;54.00
49044;BME280;34860;48.066;14.124;2023-05-09T00:22:52;97046.59;;;11.42;53.83
49044;BME280;34860;48.066;14.124;2023-05-09T00:25:43;97036.78;;;11.38;53.99
49044;BME280;34860;48.066;14.124;2023-05-09T00:28:35;97038.75;;;11.37;53.93
49044;BME280;34860;48.066;14.124;2023-05-09T00:31:24;97034.91;;;11.31;54.04
49044;BME280;34860;48.066;14.124;2023-05-09T00:34:13;97033.81;;;11.29;54.02
49044;BME280;34860;48.066;14.124;2023-05-09T00:37:01;97030.69;;;11.26;53.96
49044;BME280;34860;48.066;14.124;2023-05-09T00:39:53;97026.41;;;11.22;53.79
49044;BME280;34860;48.066;14.124;2023-05-09T00:42:45;97029.25;;;11.18;54.05
49044;BME280;34860;48.066;14.124;2023-05-09T00:45:37;97025.34;;;11.16;54.03
49044;BME280;34860;48.066;14.124;2023-05-09T00:48:28;97021.09;;;11.11;53.98
49044;BME280;34860;48.066;14.124;2023-05-09T00:51:17;97021.94;;;11.08;53.96
49044;BME280;34860;48.066;14.124;2023-05-09T00:54:10;97021.22;;;11.04;54.10
49044;BME280;34860;48.066;14.124;2023-05-09T00:57:00;97013.75;;;11.01;54.05
49044;BME280;34860;48.066;14.124;2023-05-09T00:59:50;97009.06;;;10.98;54.11
49044;BME280;34860;48.066;14.124;2023-05-09T01:02:39;97009.94;;;10.95;53.79
49044;BME280;34860;48.066;14.124;2023-05-09T01:05:29;97010.78;;;10.92;54.09
49044;BME280;34860;48.066;14.124;2023-05-09T01:08:33;96997.75;;;10.88;54.07
49044;BME280;34860;48.066;14.124;2023-05-09T01:11:28;96999.38;;;10.86;54.17
49044;BME280;34860;48.066;14.124;2023-05-09T01:14:29;96989.13;;;10.83;54.06
49044;BME280;34860;48.066;14.124;2023-05-09T01:17:28;96991.97;;;10.79;54.10
49044;BME280;34860;48.066;14.124;2023-05-09T01:20:23;96988.06;;;10.77;54.11
49044;BME280;34860;48.066;14.124;2023-05-09T01:23:33;96994.47;;;10.73;54.12
49044;BME280;34860;48.066;14.124;2023-05-09T01:26:38;96980.66;;;10.70;54.01
49044;BME280;34860;48.066;14.124;2023-05-09T01:29:35;96987.06;;;10.67;54.15
49044;BME280;34860;48.066;14.124;2023-05-09T01:32:26;96990.72;;;10.64;54.15
49044;BME280;34860;48.066;14.124;2023-05-09T01:35:20;96986.81;;;10.61;54.16
49044;BME280;34860;48.066;14.124;2023-05-09T01:38:17;96988.44;;;10.59;54.05
49044;BME280;34860;48.066;14.124;2023-05-09T01:41:10;96990.06;;;10.56;54.16
49044;BME280;34860;48.066;14.124;2023-05-09T01:44:04;96980.63;;;10.53;54.14
49044;BME280;34860;48.066;14.124;2023-05-09T01:46:58;96993.75;;;10.53;54.16
49044;BME280;34860;48.066;14.124;2023-05-09T01:49:48;96999.78;;;10.48;54.28
49044;BME280;34860;48.066;14.124;2023-05-09T01:52:39;96991.88;;;10.46;54.39
49044;BME280;34860;48.066;14.124;2023-05-09T01:55:33;96988.75;;;10.44;54.31
49044;BME280;34860;48.066;14.124;2023-05-09T01:58:24;96990.38;;;10.42;54.20
49044;BME280;34860;48.066;14.124;2023-05-09T02:01:14;96983.69;;;10.39;54.14
49044;BME280;34860;48.066;14.124;2023-05-09T02:04:05;96979.75;;;10.36;54.21
49044;BME280;34860;48.066;14.124;2023-05-09T02:06:55;96984.97;;;10.34;54.27
49044;BME280;34860;48.066;14.124;2023-05-09T02:09:45;96986.56;;;10.32;54.29
49044;BME280;34860;48.066;14.124;2023-05-09T02:12:34;96989.78;;;10.30;54.27
49044;BME280;34860;48.066;14.124;2023-05-09T02:15:23;96981.53;;;10.27;54.64
49044;BME280;34860;48.066;14.124;2023-05-09T02:18:12;96982.38;;;10.24;54.25
49044;BME280;34860;48.066;14.124;2023-05-09T02:21:04;96988.00;;;10.20;54.30
49044;BME280;34860;48.066;14.124;2023-05-09T02:23:57;96985.31;;;10.16;54.27
49044;BME280;34860;48.066;14.124;2023-05-09T02:26:46;96985.72;;;10.15;54.39
49044;BME280;34860;48.066;14.124;2023-05-09T02:29:39;96980.22;;;10.11;54.33
49044;BME280;34860;48.066;14.124;2023-05-09T02:32:30;96978.28;;;10.08;54.44
49044;BME280;34860;48.066;14.124;2023-05-09T02:35:19;96977.94;;;10.06;54.40
49044;BME280;34860;48.066;14.124;2023-05-09T02:38:15;96978.78;;;10.03;54.41
49044;BME280;34860;48.066;14.124;2023-05-09T02:41:04;96978.88;;;9.99;54.38
49044;BME280;34860;48.066;14.124;2023-05-09T02:43:56;96979.72;;;9.96;54.27
49044;BME280;34860;48.066;14.124;2023-05-09T02:46:46;96980.56;;;9.93;54.45
49044;BME280;34860;48.066;14.124;2023-05-09T02:49:37;96973.44;;;9.92;54.27
49044;BME280;34860;48.066;14.124;2023-05-09T02:52:26;96971.97;;;9.88;54.39
49044;BME280;34860;48.066;14.124;2023-05-09T02:55:18;96967.25;;;9.85;54.47
49044;BME280;34860;48.066;14.124;2023-05-09T02:58:07;96961.75;;;9.81;54.50
49044;BME280;34860;48.066;14.124;2023-05-09T03:01:00;96968.94;;;9.78;54.47
49044;BME280;34860;48.066;14.124;2023-05-09T03:03:48;96967.44;;;9.74;54.50
49044;BME280;34860;48.066;14.124;2023-05-09T03:06:38;96971.06;;;9.71;54.49
49044;BME280;34860;48.066;14.124;2023-05-09T03:09:27;96974.69;;;9.68;54.56
49044;BME280;34860;48.066;14.124;2023-05-09T03:12:17;96978.31;;;9.64;54.53
49044;BME280;34860;48.066;14.124;2023-05-09T03:15:13;96981.16;;;9.61;54.58
49044;BME280;34860;48.066;14.124;2023-05-09T03:18:04;96978.78;;;9.59;54.52
49044;BME280;34860;48.066;14.124;2023-05-09T03:20:53;96975.28;;;9.55;54.47
49044;BME280;34860;48.066;14.124;2023-05-09T03:23:43;96978.47;;;9.54;54.47
49044;BME280;34860;48.066;14.124;2023-05-09T03:26:31;96978.13;;;9.52;54.55
49044;BME280;34860;48.066;14.124;2023-05-09T03:29:23;96976.97;;;9.49;54.62
49044;BME280;34860;48.066;14.124;2023-05-09T03:32:12;96978.63;;;9.47;54.64
49044;BME280;34860;48.066;14.124;2023-05-09T03:35:01;96978.63;;;9.47;54.54
49044;BME280;34860;48.066;14.124;2023-05-09T03:37:51;96975.91;;;9.43;54.63
49044;BME280;34860;48.066;14.124;2023-05-09T03:40:39;96978.31;;;9.41;54.74
49044;BME280;34860;48.066;14.124;2023-05-09T03:43:29;96981.06;;;9.41;54.72
49044;BME280;34860;48.066;14.124;2023-05-09T03:46:20;96972.81;;;9.37;54.63
49044;BME280;34860;48.066;14.124;2023-05-09T03:49:09;96975.66;;;9.34;54.55
49044;BME280;34860;48.066;14.124;2023-05-09T03:52:02;96974.50;;;9.31;54.71
49044;BME280;34860;48.066;14.124;2023-05-09T03:54:52;96969.38;;;9.30;54.59
49044;BME280;34860;48.066;14.124;2023-05-09T03:57:41;96971.78;;;9.27;54.61
49044;BME280;34860;48.066;14.124;2023-05-09T04:00:31;96970.63;;;9.25;54.67
49044;BME280;34860;48.066;14.124;2023-05-09T04:03:30;96971.47;;;9.22;54.69
49044;BME280;34860;48.066;14.124;2023-05-09T04:06:19;96975.47;;;9.21;54.71
49044;BME280;34860;48.066;14.124;2023-05-09T04:09:10;96979.09;;;9.18;54.61
49044;BME280;34860;48.066;14.124;2023-05-09T04:12:00;96984.25;;;9.16;54.77
49044;BME280;34860;48.066;14.124;2023-05-09T04:14:49;96980.69;;;9.15;54.71
49044;BME280;34860;48.066;14.124;2023-05-09T04:17:39;96978.75;;;9.12;54.74
49044;BME280;34860;48.066;14.124;2023-05-09T04:20:29;96975.22;;;9.12;54.86
49044;BME280;34860;48.066;14.124;2023-05-09T04:23:18;96983.16;;;9.09;54.62
49044;BME280;34860;48.066;14.124;2023-05-09T04:26:07;96976.03;;;9.08;54.68
49044;BME280;34860;48.066;14.124;2023-05-09T04:28:58;96977.25;;;9.07;54.93
49044;BME280;34860;48.066;14.124;2023-05-09T04:31:47;96978.47;;;9.06;54.76
49044;BME280;34860;48.066;14.124;2023-05-09T04:34:43;96983.59;;;9.08;54.73
49044;BME280;34860;48.066;14.124;2023-05-09T04:37:38;96978.88;;;9.05;54.66
49044;BME280;34860;48.066;14.124;2023-05-09T04:40:27;96986.78;;;9.06;54.68
49044;BME280;34860;48.066;14.124;2023-05-09T04:43:19;96981.66;;;9.05;54.73
49044;BME280;34860;48.066;14.124;2023-05-09T04:46:07;96981.25;;;9.06;54.59
49044;BME280;34860;48.066;14.124;2023-05-09T04:48:57;96984.38;;;9.08;54.65
49044;BME280;34860;48.066;14.124;2023-05-09T04:51:46;96981.53;;;9.12;54.61
49044;BME280;34860;48.066;14.124;2023-05-09T04:54:36;96973.53;;;9.18;54.58
49044;BME280;34860;48.066;14.124;2023-05-09T04:57:25;96978.59;;;9.23;54.49
49044;BME280;34860;48.066;14.124;2023-05-09T05:00:18;96990.38;;;9.31;54.29
49044;BME280;34860;48.066;14.124;2023-05-09T05:03:08;96978.38;;;9.37;54.37
49044;BME280;34860;48.066;14.124;2023-05-09T05:05:56;96973.91;;;9.43;54.14
49044;BME280;34860;48.066;14.124;2023-05-09T05:08:48;96968.22;;;9.51;54.03
49044;BME280;34860;48.066;14.124;2023-05-09T05:11:38;96970.47;;;9.59;54.05
49044;BME280;34860;48.066;14.124;2023-05-09T05:14:30;96972.25;;;9.70;54.08
49044;BME280;34860;48.066;14.124;2023-05-09T05:17:21;96975.22;;;9.82;53.88
49044;BME280;34860;48.066;14.124;2023-05-09T05:20:11;96972.13;;;10.00;53.75
49044;BME280;34860;48.066;14.124;2023-05-09T05:23:05;96974.88;;;10.21;53.40
49044;BME280;34860;48.066;14.124;2023-05-09T05:25:56;96975.34;;;10.39;53.16
49044;BME280;34860;48.066;14.124;2023-05-09T05:28:51;96972.19;;;10.57;53.00
49044;BME280;34860;48.066;14.124;2023-05-09T05:31:44;96968.59;;;10.77;52.80
49044;BME280;34860;48.066;14.124;2023-05-09T05:34:33;96964.63;;;10.94;53.02
49044;BME280;34860;48.066;14.124;2023-05-09T05:37:21;96977.09;;;11.06;52.72
49044;BME280;34860;48.066;14.124;2023-05-09T05:40:11;96976.81;;;11.17;52.86
49044;BME280;34860;48.066;14.124;2023-05-09T05:43:02;96975.09;;;11.23;53.00
49044;BME280;34860;48.066;14.124;2023-05-09T05:45:54;96976.59;;;11.27;52.96
49044;BME280;34860;48.066;14.124;2023-05-09T05:48:44;96978.25;;;11.25;53.30
49044;BME280;34860;48.066;14.124;2023-05-09T05:51:33;96984.16;;;11.27;53.35
49044;BME280;34860;48.066;14.124;2023-05-09T05:54:25;96980.22;;;11.24;53.40
49044;BME280;34860;48.066;14.124;2023-05-09T05:57:14;96985.03;;;11.24;53.35
49044;BME280;34860;48.066;14.124;2023-05-09T06:00:03;96976.34;;;11.22;53.61
49044;BME280;34860;48.066;14.124;2023-05-09T06:03:00;96972.75;;;11.21;53.80
49044;BME280;34860;48.066;14.124;2023-05-09T06:06:15;96970.75;;;11.22;53.92
49044;BME280;34860;48.066;14.124;2023-05-09T06:09:06;96965.53;;;11.24;53.88
49044;BME280;34860;48.066;14.124;2023-05-09T06:11:54;96963.53;;;11.24;53.85
49044;BME280;34860;48.066;14.124;2023-05-09T06:14:46;96958.78;;;11.25;53.86
49044;BME280;34860;48.066;14.124;2023-05-09T06:17:34;96957.09;;;11.27;53.90
49044;BME280;34860;48.066;14.124;2023-05-09T06:20:25;96948.75;;;11.27;54.01
49044;BME280;34860;48.066;14.124;2023-05-09T06:23:16;96955.91;;;11.29;54.00
49044;BME280;34860;48.066;14.124;2023-05-09T06:26:08;96957.00;;;11.31;53.99
49044;BME280;34860;48.066;14.124;2023-05-09T06:28:58;96959.34;;;11.33;53.82
49044;BME280;34860;48.066;14.124;2023-05-09T06:31:47;96954.94;;;11.35;54.07
49044;BME280;34860;48.066;14.124;2023-05-09T06:34:35;96942.94;;;11.38;53.98
49044;BME280;34860;48.066;14.124;2023-05-09T06:37:25;96952.00;;;11.42;53.85
49044;BME280;34860;48.066;14.124;2023-05-09T06:40:14;96947.88;;;11.47;53.97
49044;BME280;34860;48.066;14.124;2023-05-09T06:43:03;96949.00;;;11.50;53.76
49044;BME280;34860;48.066;14.124;2023-05-09T06:45:56;96938.59;;;11.54;53.94
49044;BME280;34860;48.066;14.124;2023-05-09T06:48:49;96942.41;;;11.60;53.82
49044;BME280;34860;48.066;14.124;2023-05-09T06:51:38;96938.28;;;11.64;53.72
49044;BME280;34860;48.066;14.124;2023-05-09T06:54:28;96935.00;;;11.70;53.68
49044;BME280;34860;48.066;14.124;2023-05-09T06:57:17;96934.44;;;11.75;53.70
49044;BME280;34860;48.066;14.124;2023-05-09T07:00:07;96930.34;;;11.79;53.72
49044;BME280;34860;48.066;14.124;2023-05-09T07:03:02;96927.81;;;11.85;53.52
49044;BME280;34860;48.066;14.124;2023-05-09T07:05:53;96921.31;;;11.92;53.56
49044;BME280;34860;48.066;14.124;2023-05-09T07:08:44;96927.09;;;11.97;53.60
49044;BME280;34860;48.066;14.124;2023-05-09T07:11:36;96920.56;;;12.04;53.51
49044;BME280;34860;48.066;14.124;2023-05-09T07:14:24;96927.16;;;12.10;53.57
49044;BME280;34860;48.066;14.124;2023-05-09T07:17:16;96920.59;;;12.17;53.38
49044;BME280;34860;48.066;14.124;2023-05-09T07:20:08;96919.59;;;12.24;53.46
49044;BME280;34860;48.066;14.124;2023-05-09T07:22:57;96917.84;;;12.30;53.45
49044;BME280;34860;48.066;14.124;2023-05-09T07:25:54;96917.66;;;12.37;53.54
49044;BME280;34860;48.066;14.124;2023-05-09T07:28:45;96913.09;;;12.43;53.54
49044;BME280;34860;48.066;14.124;2023-05-09T07:31:33;96906.84;;;12.52;53.44
49044;BME280;34860;48.066;14.124;2023-05-09T07:34:22;96907.41;;;12.60;53.42
49044;BME280;34860;48.066;14.124;2023-05-09T07:37:12;96903.28;;;12.64;53.47
49044;BME280;34860;48.066;14.124;2023-05-09T07:40:01;96898.72;;;12.70;53.36
49044;BME280;34860;48.066;14.124;2023-05-09T07:42:54;96897.72;;;12.77;53.44
49044;BME280;34860;48.066;14.124;2023-05-09T07:45:44;96899.81;;;12.86;53.37
49044;BME280;34860;48.066;14.124;2023-05-09T07:48:34;96897.28;;;12.92;53.21
49044;BME280;34860;48.066;14.124;2023-05-09T07:51:23;96891.47;;;12.99;53.33
49044;BME280;34860;48.066;14.124;2023-05-09T07:54:12;96891.22;;;13.06;53.30
49044;BME280;34860;48.066;14.124;2023-05-09T07:57:01;96883.84;;;13.12;53.10
49044;BME280;34860;48.066;14.124;2023-05-09T07:59:49;96878.47;;;13.18;52.98
49044;BME280;34860;48.066;14.124;2023-05-09T08:02:40;96877.03;;;13.26;53.16
49044;BME280;34860;48.066;14.124;2023-05-09T08:05:31;96873.66;;;13.31;53.19
49044;BME280;34860;48.066;14.124;2023-05-09T08:08:21;96872.66;;;13.38;53.17
49044;BME280;34860;48.066;14.124;2023-05-09T08:11:15;96868.09;;;13.44;53.16
49044;BME280;34860;48.066;14.124;2023-05-09T08:14:05;96869.06;;;13.50;53.21
49044;BME280;34860;48.066;14.124;2023-05-09T08:16:53;96870.81;;;13.57;53.11
49044;BME280;34860;48.066;14.124;2023-05-09T08:19:43;96867.78;;;13.64;52.98
49044;BME280;34860;48.066;14.124;2023-05-09T08:22:32;96861.94;;;13.71;53.01
49044;BME280;34860;48.066;14.124;2023-05-09T08:25:22;96864.81;;;13.80;52.92
49044;BME280;34860;48.066;14.124;2023-05-09T08:28:12;96859.41;;;13.86;53.00
49044;BME280;34860;48.066;14.124;2023-05-09T08:31:01;96858.41;;;13.93;52.77
49044;BME280;34860;48.066;14.124;2023-05-09T08:33:50;96856.44;;;14.03;52.98
49044;BME280;34860;48.066;14.124;2023-05-09T08:36:40;96857.88;;;14.07;52.89
49044;BME280;34860;48.066;14.124;2023-05-09T08:39:31;96856.38;;;14.15;52.87
49044;BME280;34860;48.066;14.124;2023-05-09T08:42:26;96856.09;;;14.23;52.91
49044;BME280;34860;48.066;14.124;2023-05-09T08:45:16;96855.03;;;14.29;52.92
49044;BME280;34860;48.066;14.124;2023-05-09T08:48:09;96845.63;;;14.36;52.98
49044;BME280;34860;48.066;14.124;2023-05-09T08:51:03;96848.13;;;14.43;52.75
49044;BME280;34860;48.066;14.124;2023-05-09T08:53:54;96849.53;;;14.48;52.83
49044;BME280;34860;48.066;14.124;2023-05-09T08:56:45;96836.53;;;14.54;52.85
49044;BME280;34860;48.066;14.124;2023-05-09T08:59:39;96833.94;;;14.60;52.85
49044;BME280;34860;48.066;14.124;2023-05-09T09:02:29;96835.69;;;14.66;52.93
49044;BME280;34860;48.066;14.124;2023-05-09T09:05:20;96836.31;;;14.70;52.96
49044;BME280;34860;48.066;14.124;2023-05-09T09:08:26;96834.00;;;14.78;52.90
49044;BME280;34860;48.066;14.124;2023-05-09T09:11:16;96834.19;;;14.84;52.69
49044;BME280;34860;48.066;14.124;2023-05-09T09:14:11;96834.34;;;14.89;52.81
49044;BME280;34860;48.066;14.124;2023-05-09T09:17:00;96823.34;;;14.95;52.52
49044;BME280;34860;48.066;14.124;2023-05-09T09:19:50;96813.09;;;15.01;52.76
49044;BME280;34860;48.066;14.124;2023-05-09T09:22:45;96816.34;;;15.09;52.67
49044;BME280;34860;48.066;14.124;2023-05-09T09:25:35;96814.50;;;15.15;52.69
49044;BME280;34860;48.066;14.124;2023-05-09T09:28:25;96809.06;;;15.21;52.75
49044;BME280;34860;48.066;14.124;2023-05-09T09:31:20;96812.34;;;15.29;52.47
49044;BME280;34860;48.066;14.124;2023-05-09T09:34:20;96806.44;;;15.36;52.78
49044;BME280;34860;48.066;14.124;2023-05-09T09:37:08;96800.22;;;15.41;52.69
49044;BME280;34860;48.066;14.124;2023-05-09T09:40:09;96796.34;;;15.48;52.54
49044;BME280;34860;48.066;14.124;2023-05-09T09:43:00;96794.44;;;15.54;52.52
49044;BME280;34860;48.066;14.124;2023-05-09T09:45:49;96798.97;;;15.60;52.50
49044;BME280;34860;48.066;14.124;2023-05-09T09:48:45;96797.72;;;15.71;52.58
49044;BME280;34860;48.066;14.124;2023-05-09T09:51:37;96792.31;;;15.76;52.34
49044;BME280;34860;48.066;14.124;2023-05-09T09:54:26;96784.34;;;15.84;52.48
49044;BME280;34860;48.066;14.124;2023-05-09T09:57:32;96773.56;;;15.92;52.24
49044;BME280;34860;48.066;14.124;2023-05-09T10:00:25;96778.41;;;16.01;52.43
49044;BME280;34860;48.066;14.124;2023-05-09T10:03:22;96773.25;;;16.08;52.39
49044;BME280;34860;48.066;14.124;2023-05-09T10:06:11;96776.78;;;16.18;52.31
49044;BME280;34860;48.066;14.124;2023-05-09T10:09:00;96760.88;;;16.24;52.22
49044;BME280;34860;48.066;14.124;2023-05-09T10:11:50;96759.28;;;16.32;52.27
49044;BME280;34860;48.066;14.124;2023-05-09T10:14:41;96753.63;;;16.42;52.15
49044;BME280;34860;48.066;14.124;2023-05-09T10:17:30;96752.81;;;16.50;52.14
49044;BME280;34860;48.066;14.124;2023-05-09T10:20:22;96750.44;;;16.58;52.09
49044;BME280;34860;48.066;14.124;2023-05-09T10:23:15;96756.03;;;16.67;51.99
49044;BME280;34860;48.066;14.124;2023-05-09T10:26:10;96746.28;;;16.78;52.08
49044;BME280;34860;48.066;14.124;2023-05-09T10:29:07;96747.03;;;16.87;52.16
49044;BME280;34860;48.066;14.124;2023-05-09T10:31:58;96736.03;;;16.99;52.03
49044;BME280;34860;48.066;14.124;2023-05-09T10:34:51;96728.03;;;17.06;51.96
49044;BME280;34860;48.066;14.124;2023-05-09T10:37:44;96723.13;;;17.16;51.83
49044;BME280;34860;48.066;14.124;2023-05-09T10:40:35;96717.13;;;17.23;51.85
49044;BME280;34860;48.066;14.124;2023-05-09T10:43:24;96716.28;;;17.32;51.86
49044;BME280;34860;48.066;14.124;2023-05-09T10:46:16;96716.97;;;17.42;51.98
49044;BME280;34860;48.066;14.124;2023-05-09T10:49:06;96721.25;;;17.52;51.84
49044;BME280;34860;48.066;14.124;2023-05-09T10:51:56;96711.19;;;17.60;51.90
49044;BME280;34860;48.066;14.124;2023-05-09T10:54:57;96696.56;;;17.71;51.79
49044;BME280;34860;48.066;14.124;2023-05-09T10:57:51;96693.16;;;17.82;51.86
49044;BME280;34860;48.066;14.124;2023-05-09T11:00:41;96683.38;;;17.92;51.70
49044;BME280;34860;48.066;14.124;2023-05-09T11:03:52;96688.22;;;18.07;51.65
49044;BME280;34860;48.066;14.124;2023-05-09T11:06:44;96684.81;;;18.18;51.50
49044;BME280;34860;48.066;14.124;2023-05-09T11:09:36;96679.34;;;18.29;51.66
49044;BME280;34860;48.066;14.124;2023-05-09T11:12:28;96673.69;;;18.44;51.49
49044;BME280;34860;48.066;14.124;2023-05-09T11:15:18;96669.75;;;18.56;51.40
49044;BME280;34860;48.066;14.124;2023-05-09T11:18:09;96654.56;;;18.68;51.28
49044;BME280;34860;48.066;14.124;2023-05-09T11:20:58;96658.09;;;18.84;51.26
49044;BME280;34860;48.066;14.124;2023-05-09T11:23:55;96645.22;;;18.98;51.19
49044;BME280;34860;48.066;14.124;2023-05-09T11:26:47;96643.09;;;19.13;51.27
49044;BME280;34860;48.066;14.124;2023-05-09T11:29:45;96638.41;;;19.31;51.03
49044;BME280;34860;48.066;14.124;2023-05-09T11:32:41;96638.84;;;19.50;51.18
49044;BME280;34860;48.066;14.124;2023-05-09T11:35:32;96631.31;;;19.67;50.97
49044;BME280;34860;48.066;14.124;2023-05-09T11:38:23;96627.41;;;19.85;51.03
49044;BME280;34860;48.066;14.124;2023-05-09T11:41:12;96625.22;;;20.06;51.04
49044;BME280;34860;48.066;14.124;2023-05-09T11:44:02;96613.81;;;20.27;51.01
49044;BME280;34860;48.066;14.124;2023-05-09T11:46:52;96617.03;;;20.51;50.79
49044;BME280;34860;48.066;14.124;2023-05-09T11:49:42;96620.78;;;20.75;50.68
49044;BME280;34860;48.066;14.124;2023-05-09T11:52:31;96608.53;;;21.00;50.59
49044;BME280;34860;48.066;14.124;2023-05-09T11:55:21;96603.69;;;21.23;50.60
49044;BME280;34860;48.066;14.124;2023-05-09T11:58:13;96595.78;;;21.50;50.44
49044;BME280;34860;48.066;14.124;2023-05-09T12:01:05;96599.16;;;21.77;50.47
49044;BME280;34860;48.066;14.124;2023-05-09T12:03:58;96591.16;;;22.04;50.20
49044;BME280;34860;48.066;14.124;2023-05-09T12:06:46;96586.47;;;22.29;50.17
49044;BME280;34860;48.066;14.124;2023-05-09T12:09:40;96583.34;;;22.55;50.26
49044;BME280;34860;48.066;14.124;2023-05-09T12:12:32;96587.34;;;22.82;50.07
49044;BME280;34860;48.066;14.124;2023-05-09T12:15:21;96583.63;;;23.04;49.76
49044;BME280;34860;48.066;14.124;2023-05-09T12:18:10;96582.22;;;23.28;50.25
49044;BME280;34860;48.066;14.124;2023-05-09T12:21:02;96564.75;;;23.54;50.10
49044;BME280;34860;48.066;14.124;2023-05-09T12:23:54;96564.03;;;23.79;50.02
49044;BME280;34860;48.066;14.124;2023-05-09T12:26:43;96560.47;;;24.03;49.77
49044;BME280;34860;48.066;14.124;2023-05-09T12:29:32;96554.59;;;24.25;49.88
49044;BME280;34860;48.066;14.124;2023-05-09T12:32:21;96561.00;;;24.51;49.86
49044;BME280;34860;48.066;14.124;2023-05-09T12:35:10;96552.47;;;24.75;49.70
49044;BME280;34860;48.066;14.124;2023-05-09T12:38:00;96550.56;;;25.02;49.51
49044;BME280;34860;48.066;14.124;2023-05-09T12:40:59;96554.09;;;25.28;49.36
49044;BME280;34860;48.066;14.124;2023-05-09T12:43:49;96543.38;;;25.53;49.53
49044;BME280;34860;48.066;14.124;2023-05-09T12:46:38;96536.75;;;25.77;49.00
49044;BME280;34860;48.066;14.124;2023-05-09T12:49:31;96537.34;;;26.02;49.11
49044;BME280;34860;48.066;14.124;2023-05-09T12:52:19;96528.97;;;26.23;48.76
49044;BME280;34860;48.066;14.124;2023-05-09T12:55:11;96513.72;;;26.48;48.92
49044;BME280;34860;48.066;14.124;2023-05-09T12:58:02;96507.91;;;26.67;49.06
49044;BME280;34860;48.066;14.124;2023-05-09T13:00:55;96511.38;;;26.86;48.78
49044;BME280;34860;48.066;14.124;2023-05-09T13:03:50;96498.69;;;27.08;48.84
49044;BME280;34860;48.066;14.124;2023-05-09T13:06:47;96499.47;;;27.30;48.96
49044;BME280;34860;48.066;14.124;2023-05-09T13:09:53;96484.47;;;27.50;48.63
49044;BME280;34860;48.066;14.124;2023-05-09T13:12:47;96475.13;;;27.71;48.60
49044;BME280;34860;48.066;14.124;2023-05-09T13:15:36;96472.03;;;27.90;48.70
49044;BME280;34860;48.066;14.124;2023-05-09T13:18:26;96467.63;;;28.10;48.45
49044;BME280;34860;48.066;14.124;2023-05-09T13:21:15;96460.09;;;28.28;48.58
49044;BME280;34860;48.066;14.124;2023-05-09T13:24:04;96451.63;;;28.43;48.34
49044;BME280;34860;48.066;14.124;2023-05-09T13:26:55;96461.06;;;28.59;48.13
49044;BME280;34860;48.066;14.124;2023-05-09T13:29:45;96444.72;;;28.75;48.08
49044;BME280;34860;48.066;14.124;2023-05-09T13:32:36;96451.03;;;28.89;48.03
49044;BME280;34860;48.066;14.124;2023-05-09T13:35:26;96442.31;;;29.03;47.80
49044;BME280;34860;48.066;14.124;2023-05-09T13:38:14;96442.69;;;29.14;47.91
49044;BME280;34860;48.066;14.124;2023-05-09T13:41:03;96433.00;;;29.25;47.77
49044;BME280;34860;48.066;14.124;2023-05-09T13:43:51;96434.75;;;29.36;47.80
49044;BME280;34860;48.066;14.124;2023-05-09T13:46:42;96422.13;;;29.47;47.59
49044;BME280;34860;48.066;14.124;2023-05-09T13:49:30;96416.78;;;29.59;47.55
49044;BME280;34860;48.066;14.124;2023-05-09T13:52:18;96417.72;;;29.69;47.45
49044;BME280;34860;48.066;14.124;2023-05-09T13:55:08;96423.09;;;29.80;47.45
49044;BME280;34860;48.066;14.124;2023-05-09T13:57:57;96417.75;;;29.92;47.28
49044;BME280;34860;48.066;14.124;2023-05-09T14:00:47;96416.75;;;30.05;47.19
49044;BME280;34860;48.066;14.124;2023-05-09T14:03:38;96407.91;;;30.18;47.12
49044;BME280;34860;48.066;14.124;2023-05-09T14:06:26;96402.91;;;30.27;46.94
49044;BME280;34860;48.066;14.124;2023-05-09T14:09:18;96399.28;;;30.34;46.98
49044;BME280;34860;48.066;14.124;2023-05-09T14:12:07;96390.09;;;30.43;46.90
49044;BME280;34860;48.066;14.124;2023-05-09T14:15:00;96384.69;;;30.47;46.83
49044;BME280;34860;48.066;14.124;2023-05-09T14:17:50;96376.31;;;30.49;46.84
49044;BME280;34860;48.066;14.124;2023-05-09T14:20:42;96368.44;;;30.50;46.54
49044;BME280;34860;48.066;14.124;2023-05-09T14:23:30;96365.00;;;30.51;46.57
49044;BME280;34860;48.066;14.124;2023-05-09T14:26:19;96361.38;;;30.51;46.65
49044;BME280;34860;48.066;14.124;2023-05-09T14:29:15;96369.06;;;30.40;46.67
49044;BME280;34860;48.066;14.124;2023-05-09T14:32:03;96361.63;;;30.30;46.95
49044;BME280;34860;48.066;14.124;2023-05-09T14:34:53;96353.69;;;30.13;46.77
49044;BME280;34860;48.066;14.124;2023-05-09T14:37:42;96346.69;;;29.91;46.88
49044;BME280;34860;48.066;14.124;2023-05-09T14:40:31;96347.28;;;29.66;46.71
49044;BME280;34860;48.066;14.124;2023-05-09T14:43:22;96334.91;;;29.32;47.17
49044;BME280;34860;48.066;14.124;2023-05-09T14:46:14;96322.88;;;28.95;47.04
49044;BME280;34860;48.066;14.124;2023-05-09T14:49:02;96333.50;;;28.56;47.31
49044;BME280;34860;48.066;14.124;2023-05-09T14:51:54;96327.66;;;28.18;47.55
49044;BME280;34860;48.066;14.124;2023-05-09T14:54:44;96319.66;;;27.80;47.25
49044;BME280;34860;48.066;14.124;2023-05-09T14:57:37;96319.41;;;27.41;47.69
49044;BME280;34860;48.066;14.124;2023-05-09T15:00:25;96312.31;;;27.06;47.40